Main page
METAR-TAF:

METAR-TAF

Airports :

Djanet Inedbirene Airport

Djanet, Algeria

latitude: 24-33N, longitude: 009-28E, elevation: 1054 m

Current weather observation

The report was made 1 hour and 39 minutes ago, at 01:00 UTC
Wind 10 kt from the East/Northeast
Temperature 27°C
Humidity 17%
Pressure 1021 hPa
Visibility: 7000 m

METAR: DAAJ 030100Z 07010KT 7000 NSC 27/00 Q1021

Time: 03:39 (02:39 UTC)

Forecast

The report was made 3 hours and 39 minutes ago, at 23:00 UTC
Forecast valid from 03 at 00 UTC to 03 at 24 UTC
Wind 14 kt from the East
Visibility: 7000 m
Probability 30% :
Temporary
from 03 at 00 UTC to 03 at 06 UTC
Visibility: 4000 m
haze
Probability 30% :
Temporary
from 03 at 06 UTC to 03 at 10 UTC
Wind 24 kt from the East
Visibility: 3000 m
Low drifting sand

TAF: DAAJ 022300Z 0300/0324 08014KT 7000 NSC PROB30 TEMPO 0300/0306 4000 HZ PROB30 TEMPO 0306/0310 08024KT 3000 DRSA

Weather observations and forecasts of more than 4000 airports (METAR and TAF reports).

The available stations are represented by yellow and red dots on the map.

Hover mouse over dot to see the name of the station.

Then click to see weather observations and forecasts.

To change the map : click on the green buttons with a black cross to zoom in, on the green button with a dash to zoom out, or on the green arrows for adjacent maps.


METAR-TAF: